Time,TemperatureF,DewpointF,PressureIn,WindDirection,WindDirectionDegrees,WindSpeedMPH,WindSpeedGustMPH,Humidity,HourlyPrecipIn,Conditions,Clouds,dailyrainin,SoftwareType,DateUTC
2014-01-22 01:21:00,44.0,14.0,-100.00,North,-999,-999.0,-999.0,30,0.00,,,0.00,,2014-01-22 07:21:00,
2014-01-22 01:53:00,44.0,15.0,-100.00,North,-999,-999.0,-999.0,31,0.00,,,0.00,,2014-01-22 07:53:00,
2014-01-22 02:22:00,43.0,15.0,-100.00,North,-999,-999.0,-999.0,32,0.00,,,0.00,,2014-01-22 08:22:00,
2014-01-22 02:32:00,43.0,15.0,-100.00,North,-999,-999.0,-999.0,32,0.00,,,0.00,,2014-01-22 08:32:00,
2014-01-22 02:52:00,44.0,15.0,-100.00,North,-999,-999.0,-999.0,31,0.00,,,0.00,,2014-01-22 08:52:00,
2014-01-22 03:03:00,44.0,15.0,-100.00,North,-999,-999.0,-999.0,31,0.00,,,0.00,,2014-01-22 09:03:00,
2014-01-22 03:22:00,44.0,14.0,-100.00,North,-999,-999.0,-999.0,30,0.00,,,0.00,,2014-01-22 09:22:00,
2014-01-22 03:53:00,45.0,14.0,-100.00,North,-999,-999.0,-999.0,29,0.00,,,0.00,,2014-01-22 09:53:00,
2014-01-22 04:23:00,46.0,14.0,-100.00,North,-999,-999.0,-999.0,28,0.00,,,-99.99,,2014-01-22 10:23:00,
2014-01-22 04:53:00,46.0,14.0,-100.00,North,-999,-999.0,-999.0,28,0.00,,,0.00,,2014-01-22 10:53:00,
2014-01-22 05:22:00,45.0,14.0,-100.00,North,-999,-999.0,-999.0,29,0.00,,,-99.99,,2014-01-22 11:22:00,
2014-01-22 05:52:00,45.0,14.0,-100.00,North,-999,-999.0,-999.0,29,0.00,,,-99.99,,2014-01-22 11:52:00,
2014-01-22 06:22:00,45.0,14.0,-100.00,North,-999,-999.0,-999.0,29,0.00,,,0.00,,2014-01-22 12:22:00,
2014-01-22 06:52:00,45.0,14.0,-100.00,North,-999,-999.0,-999.0,29,0.00,,,0.00,,2014-01-22 12:52:00,
2014-01-22 07:02:00,45.0,14.0,-100.00,North,-999,-999.0,-999.0,29,0.00,,,0.00,,2014-01-22 13:02:00,
2014-01-22 07:22:00,45.0,14.0,-100.00,North,-999,-999.0,-999.0,29,0.00,,,-99.99,,2014-01-22 13:22:00,
2014-01-22 07:52:00,45.0,14.0,-100.00,North,-999,-999.0,-999.0,29,0.00,,,0.00,,2014-01-22 13:52:00,
2014-01-22 08:12:00,45.0,15.0,-100.00,North,-999,-999.0,-999.0,30,-99.99,,,-99.99,,2014-01-22 14:12:00,
2014-01-22 08:21:00,45.0,15.0,-100.00,North,-999,-999.0,-999.0,30,-99.99,,,-99.99,,2014-01-22 14:21:00,
2014-01-22 08:52:00,47.0,15.0,-100.00,North,-999,-999.0,-999.0,28,0.00,,,0.00,,2014-01-22 14:52:00,
2014-01-22 09:53:00,51.0,17.0,-100.00,North,-999,-999.0,-999.0,26,0.00,,,-99.99,,2014-01-22 15:53:00,
2014-01-22 10:23:00,54.0,17.0,-100.00,North,-999,-999.0,-999.0,24,0.00,,,-99.99,,2014-01-22 16:23:00,
2014-01-22 10:53:00,55.0,17.0,-100.00,North,-999,-999.0,-999.0,22,0.00,,,0.00,,2014-01-22 16:53:00,
2014-01-22 11:22:00,57.0,18.0,-100.00,North,-999,-999.0,-999.0,21,0.00,,,-99.99,,2014-01-22 17:22:00,
2014-01-22 11:52:00,60.0,18.0,-100.00,North,-999,-999.0,-999.0,20,0.00,,,0.00,,2014-01-22 17:52:00,
2014-01-22 12:12:00,61.0,21.0,-100.00,North,-999,-999.0,-999.0,21,0.00,,,0.00,,2014-01-22 18:12:00,
2014-01-22 12:22:00,61.0,21.0,-100.00,North,-999,-999.0,-999.0,21,0.00,,,0.00,,2014-01-22 18:22:00,
2014-01-22 12:52:00,63.0,20.0,-100.00,North,-999,-999.0,-999.0,19,0.00,,,0.00,,2014-01-22 18:52:00,
2014-01-22 13:21:00,63.0,19.0,-100.00,North,-999,-999.0,-999.0,18,-99.99,,,0.00,,2014-01-22 19:21:00,
2014-01-22 13:52:00,62.0,19.0,-100.00,North,-999,-999.0,-999.0,19,0.00,,,0.00,,2014-01-22 19:52:00,
2014-01-22 14:22:00,61.0,18.0,-100.00,North,-999,-999.0,-999.0,19,0.00,,,0.00,,2014-01-22 20:22:00,
2014-01-22 14:32:00,61.0,18.0,-100.00,North,-999,-999.0,-999.0,19,0.00,,,0.00,,2014-01-22 20:32:00,
2014-01-22 14:52:00,62.0,19.0,-100.00,North,-999,-999.0,-999.0,19,0.00,,,0.00,,2014-01-22 20:52:00,
2014-01-22 15:12:00,61.0,13.0,-100.00,North,-999,-999.0,-999.0,15,0.00,,,0.00,,2014-01-22 21:12:00,
2014-01-22 15:22:00,61.0,13.0,-100.00,North,-999,-999.0,-999.0,15,0.00,,,0.00,,2014-01-22 21:22:00,
2014-01-22 15:53:00,63.0,9.0,-100.00,North,-999,-999.0,-999.0,12,0.00,,,0.00,,2014-01-22 21:53:00,
2014-01-22 16:23:00,64.0,10.0,-100.00,North,-999,-999.0,-999.0,12,-99.99,,,0.00,,2014-01-22 22:23:00,
2014-01-22 16:53:00,63.0,13.0,-100.00,North,-999,-999.0,-999.0,14,0.00,,,0.00,,2014-01-22 22:53:00,
2014-01-22 17:22:00,62.0,15.0,-100.00,North,-999,-999.0,-999.0,16,0.00,,,0.00,,2014-01-22 23:22:00,
2014-01-22 17:52:00,59.0,13.0,-100.00,North,-999,-999.0,-999.0,16,0.00,,,0.00,,2014-01-22 23:52:00,
2014-01-22 18:22:00,58.0,16.0,-100.00,North,-999,-999.0,-999.0,19,0.00,,,0.00,,2014-01-23 00:22:00,
2014-01-22 20:22:00,55.0,17.0,-100.00,North,-999,-999.0,-999.0,22,0.00,,,0.00,,2014-01-23 02:22:00,
2014-01-22 21:22:00,54.0,18.0,-100.00,North,-999,-999.0,-999.0,24,0.00,,,-99.99,,2014-01-23 03:22:00,
2014-01-22 21:53:00,53.0,17.0,-100.00,North,-999,-999.0,-999.0,24,0.00,,,0.00,,2014-01-23 03:53:00,
2014-01-22 22:23:00,53.0,17.0,-100.00,North,-999,-999.0,-999.0,24,0.00,,,-99.99,,2014-01-23 04:23:00,
2014-01-22 22:42:00,53.0,17.0,-100.00,North,-999,-999.0,-999.0,24,0.00,,,0.00,,2014-01-23 04:42:00,
2014-01-22 22:53:00,53.0,17.0,-100.00,North,-999,-999.0,-999.0,24,0.00,,,0.00,,2014-01-23 04:53:00,
2014-01-22 23:22:00,53.0,20.0,-100.00,North,-999,-999.0,-999.0,28,0.00,,,0.00,,2014-01-23 05:22:00,
2014-01-22 23:42:00,51.0,26.0,-100.00,North,-999,-999.0,-999.0,39,0.00,,,0.00,,2014-01-23 05:42:00,
2014-01-22 23:52:00,51.0,24.0,-100.00,North,-999,-999.0,-999.0,34,0.00,,,0.00,,2014-01-23 05:52:00,